Graysville, Missouri
Current Conditions -  °F | °C
As of 2:10 PM on Wednesday 26 Nov 2014 (Local Time) from KTVK Reporting Station
Light Rain Light Rain  
Wind Chill: -4°   Ceiling: 300
Heat Index:   Visibility: 8mi
Dew Point:   Wind: 8mph
Humidity: 100%   Direction: 40°NE
Pressure: 29.96"   Gusts: NA
Location:  40.4961°N, 92.9907°W
Report Text: KTVK 262010Z AUTO 04007KT 8SM -RA BKN003 OVC055 00/00 A2996 RMK AO2
Loading
Personal Weather Stations






























Interactive Weather Map New forecast layout! Learn more

10-Day Weather Forecast

Advertisements
Track Severe Weather on mobile